Time;durP1;ratioP1;P1;durP2;ratioP2;P2;SDS_P1;SDS_P2;PMS_P1;PMS_P2;Temp;Humidity;BMP_temperature;BMP_pressure;BME280_temperature;BME280_humidity;BME280_pressure;Samples;Min_cycle;Max_cycle;Signal;HPM_P1;HPM_P2
2022/09/30 00:01:10;;;;;;;3.73;2.30;;;7.90;92.20;;;;;;944654;148;27298;-79
2022/09/30 00:03:36;;;;;;;2.80;2.60;;;7.90;92.50;;;;;;944166;148;27383;-80
2022/09/30 00:06:03;;;;;;;3.10;2.53;;;7.90;92.60;;;;;;943781;148;27430;-78
2022/09/30 00:08:30;;;;;;;3.83;3.10;;;7.90;92.80;;;;;;943469;148;27361;-79
2022/09/30 00:11:03;;;;;;;2.97;2.77;;;8.00;93.00;;;;;;944405;148;27351;-78
2022/09/30 00:13:28;;;;;;;6.07;3.10;;;8.00;93.20;;;;;;944321;148;27276;-79
2022/09/30 00:15:55;;;;;;;3.30;3.00;;;8.00;93.20;;;;;;944288;148;27959;-80
2022/09/30 00:18:22;;;;;;;3.40;3.10;;;8.00;93.30;;;;;;943947;148;27357;-78
2022/09/30 00:20:48;;;;;;;3.60;3.00;;;8.10;93.40;;;;;;945139;148;27878;-78
2022/09/30 00:23:15;;;;;;;3.10;2.80;;;8.10;93.40;;;;;;944553;148;27270;-78
2022/09/30 00:25:41;;;;;;;6.10;3.20;;;8.10;93.40;;;;;;943894;148;27281;-79
2022/09/30 00:28:08;;;;;;;3.77;3.00;;;8.10;93.40;;;;;;944300;148;27343;-79
2022/09/30 00:30:35;;;;;;;3.47;3.17;;;8.20;93.40;;;;;;944440;148;27334;-79
2022/09/30 00:33:01;;;;;;;4.23;3.10;;;8.20;93.40;;;;;;944268;148;27839;-78
2022/09/30 00:35:28;;;;;;;5.07;4.03;;;8.20;93.30;;;;;;944501;148;27305;-78
2022/09/30 00:37:54;;;;;;;3.93;3.10;;;8.20;93.10;;;;;;943656;148;27329;-79
2022/09/30 00:40:21;;;;;;;4.70;3.93;;;8.20;93.00;;;;;;944662;148;27383;-79
2022/09/30 00:42:48;;;;;;;3.20;2.90;;;8.10;93.00;;;;;;944937;148;27353;-79
2022/09/30 00:45:16;;;;;;;4.47;3.63;;;8.10;92.60;;;;;;944525;148;28503;-78
2022/09/30 00:47:42;;;;;;;3.53;3.23;;;8.10;92.90;;;;;;944090;148;27381;-79
2022/09/30 00:50:11;;;;;;;3.30;3.07;;;8.00;92.90;;;;;;943521;148;27309;-78
2022/09/30 00:52:37;;;;;;;3.17;2.87;;;8.00;92.80;;;;;;942348;148;27419;-79
2022/09/30 00:55:03;;;;;;;4.23;3.07;;;7.90;92.90;;;;;;937854;148;27358;-79
2022/09/30 00:57:30;;;;;;;4.30;3.07;;;7.90;92.90;;;;;;936987;149;27806;-78
2022/09/30 00:59:57;;;;;;;3.63;3.17;;;7.90;93.00;;;;;;937647;148;27332;-78
2022/09/30 01:02:23;;;;;;;3.27;3.00;;;7.80;93.10;;;;;;938078;148;27323;-78
2022/09/30 01:04:50;;;;;;;3.20;2.90;;;7.80;93.20;;;;;;938154;149;27286;-78
2022/09/30 01:07:16;;;;;;;3.47;3.17;;;7.70;93.30;;;;;;938091;151;27323;-80
2022/09/30 01:09:43;;;;;;;3.03;2.80;;;7.70;93.30;;;;;;938010;151;27926;-78
2022/09/30 01:12:10;;;;;;;3.70;3.40;;;7.70;93.40;;;;;;938153;148;27313;-78
2022/09/30 01:14:36;;;;;;;3.73;3.43;;;7.60;93.50;;;;;;937492;148;27314;-78
2022/09/30 01:17:21;;;;;;;4.77;3.60;;;7.60;93.60;;;;;;937450;152;27790;-79
2022/09/30 01:19:47;;;;;;;3.33;3.03;;;7.60;93.70;;;;;;936923;148;27346;-79
2022/09/30 01:22:51;;;;;;;3.70;3.40;;;7.60;93.60;;;;;;937185;148;27349;-78
2022/09/30 01:25:42;;;;;;;4.30;3.07;;;7.50;93.70;;;;;;937931;148;27727;-79
2022/09/30 01:28:33;;;;;;;3.40;3.07;;;7.50;93.50;;;;;;936175;148;28547;-80
2022/09/30 01:31:12;;;;;;;4.13;2.90;;;7.50;93.60;;;;;;937126;148;27413;-79
2022/09/30 01:34:16;;;;;;;3.13;2.83;;;7.40;93.60;;;;;;932960;148;27348;-78
2022/09/30 01:36:42;;;;;;;3.00;2.77;;;7.40;93.70;;;;;;937495;148;27778;-81
2022/09/30 01:39:27;;;;;;;7.10;3.07;;;7.30;93.70;;;;;;937606;152;27443;-81
2022/09/30 01:41:53;;;;;;;2.70;2.50;;;7.30;93.90;;;;;;937031;152;27362;-79
2022/09/30 01:44:38;;;;;;;2.90;2.70;;;7.30;93.90;;;;;;927484;153;27310;-79
2022/09/30 01:47:07;;;;;;;2.93;2.60;;;7.20;94.10;;;;;;937328;149;27330;-79
2022/09/30 01:49:43;;;;;;;3.17;2.77;;;7.20;94.10;;;;;;937163;151;27338;-79
2022/09/30 01:52:12;;;;;;;3.60;3.30;;;7.20;94.10;;;;;;937698;148;27450;-79
2022/09/30 01:54:39;;;;;;;3.10;2.67;;;7.20;94.10;;;;;;942618;148;27309;-79
2022/09/30 01:57:24;;;;;;;3.63;3.33;;;7.10;94.10;;;;;;943749;148;27289;-78
2022/09/30 01:59:51;;;;;;;4.83;2.83;;;7.10;94.20;;;;;;943902;148;27278;-79
2022/09/30 02:02:18;;;;;;;2.93;2.60;;;7.10;94.10;;;;;;944045;148;27266;-79
2022/09/30 02:04:50;;;;;;;2.50;2.30;;;7.10;94.20;;;;;;944172;148;27297;-80
2022/09/30 02:07:16;;;;;;;3.83;3.00;;;7.00;94.20;;;;;;943667;148;27356;-79
2022/09/30 02:09:49;;;;;;;3.00;2.50;;;7.00;94.40;;;;;;943447;148;27325;-78
2022/09/30 02:12:15;;;;;;;2.60;2.40;;;7.00;94.60;;;;;;926921;148;27325;-78
2022/09/30 02:14:51;;;;;;;2.80;2.50;;;7.00;94.70;;;;;;943782;148;27387;-79
2022/09/30 02:17:20;;;;;;;2.90;2.60;;;7.00;94.90;;;;;;943566;148;27353;-79
2022/09/30 02:20:05;;;;;;;4.20;2.70;;;7.00;95.00;;;;;;943440;150;27442;-79
2022/09/30 02:22:43;;;;;;;3.07;2.67;;;7.00;95.00;;;;;;943506;147;27355;-79
2022/09/30 02:25:08;;;;;;;3.03;2.83;;;7.00;95.00;;;;;;943357;148;27314;-79
2022/09/30 02:27:36;;;;;;;2.83;2.63;;;7.00;95.00;;;;;;943250;148;27407;-78
2022/09/30 02:30:03;;;;;;;2.60;2.40;;;7.00;95.00;;;;;;943475;148;28485;-79
2022/09/30 02:32:27;;;;;;;2.60;2.40;;;7.00;95.00;;;;;;943890;148;27341;-79
2022/09/30 02:34:54;;;;;;;2.80;2.50;;;7.00;95.00;;;;;;943488;148;27423;-79
2022/09/30 02:37:20;;;;;;;3.00;2.70;;;7.00;95.00;;;;;;943945;148;27305;-80
2022/09/30 02:39:53;;;;;;;5.90;3.63;;;7.00;95.00;;;;;;943065;148;27294;-81
2022/09/30 02:42:20;;;;;;;2.50;2.27;;;7.00;95.20;;;;;;943950;148;27902;-79
2022/09/30 02:44:46;;;;;;;2.60;2.40;;;6.90;95.10;;;;;;944572;147;27402;-79
2022/09/30 02:47:15;;;;;;;2.40;2.20;;;6.90;95.10;;;;;;943974;148;27392;-78
2022/09/30 02:49:48;;;;;;;2.60;2.37;;;6.90;95.00;;;;;;943849;148;27341;-79
2022/09/30 02:52:33;;;;;;;2.67;2.00;;;6.90;95.00;;;;;;943424;148;27293;-79
2022/09/30 02:55:02;;;;;;;2.47;2.27;;;6.90;94.90;;;;;;943819;148;27719;-79
2022/09/30 02:57:50;;;;;;;3.23;2.30;;;6.80;94.70;;;;;;943135;148;27377;-78
2022/09/30 03:00:16;;;;;;;2.27;2.07;;;6.80;94.70;;;;;;943701;148;27368;-79
2022/09/30 03:02:43;;;;;;;2.60;2.40;;;6.70;94.50;;;;;;944044;148;27291;-80
2022/09/30 03:05:10;;;;;;;2.43;2.23;;;6.70;94.60;;;;;;944470;148;27800;-80
2022/09/30 03:07:36;;;;;;;2.30;2.10;;;6.70;94.70;;;;;;944142;148;27322;-80
2022/09/30 03:10:06;;;;;;;2.40;2.20;;;6.60;94.80;;;;;;944289;152;27416;-80
2022/09/30 03:12:38;;;;;;;2.43;2.27;;;6.60;94.90;;;;;;943569;148;27908;-79
2022/09/30 03:15:07;;;;;;;5.70;3.03;;;6.50;94.90;;;;;;942802;148;27797;-80
2022/09/30 03:17:45;;;;;;;3.17;2.37;;;6.50;95.00;;;;;;944357;148;27357;-80
2022/09/30 03:20:15;;;;;;;2.07;1.97;;;6.50;95.10;;;;;;943327;148;27946;-80
2022/09/30 03:23:09;;;;;;;2.50;2.30;;;6.50;95.20;;;;;;943621;148;27374;-79
2022/09/30 03:25:56;;;;;;;2.97;2.27;;;6.40;95.50;;;;;;943974;148;27318;-80
2022/09/30 03:28:28;;;;;;;2.37;2.27;;;6.40;95.60;;;;;;944103;148;27417;-80
2022/09/30 03:31:13;;;;;;;2.53;2.37;;;6.40;95.60;;;;;;944475;148;27352;-80
2022/09/30 03:33:49;;;;;;;2.40;2.20;;;6.40;95.70;;;;;;907065;153;27493;-79
2022/09/30 03:36:24;;;;;;;2.53;2.33;;;6.40;95.60;;;;;;929209;151;27387;-79
2022/09/30 03:38:54;;;;;;;3.77;2.50;;;6.40;95.60;;;;;;932990;150;27355;-79
2022/09/30 03:41:35;;;;;;;2.37;2.13;;;6.30;95.60;;;;;;934049;151;27290;-78
2022/09/30 03:44:02;;;;;;;2.30;2.10;;;6.30;95.60;;;;;;933930;150;27460;-79
2022/09/30 03:46:43;;;;;;;3.40;2.93;;;6.30;95.60;;;;;;932971;151;27394;-79
2022/09/30 03:49:12;;;;;;;2.60;2.40;;;6.30;95.70;;;;;;933513;151;27359;-79
2022/09/30 03:51:37;;;;;;;3.97;2.90;;;6.30;95.80;;;;;;933340;151;27344;-79
2022/09/30 03:54:03;;;;;;;2.60;2.40;;;6.30;96.10;;;;;;933671;151;27705;-79
2022/09/30 03:56:30;;;;;;;3.87;2.63;;;6.20;96.40;;;;;;933272;151;27347;-79
2022/09/30 03:58:56;;;;;;;2.73;2.40;;;6.30;96.70;;;;;;933603;151;27374;-79
2022/09/30 04:01:23;;;;;;;4.33;2.93;;;6.30;97.00;;;;;;933760;150;27366;-79
2022/09/30 04:03:52;;;;;;;4.87;3.47;;;6.30;97.20;;;;;;934112;150;27452;-79
2022/09/30 04:06:16;;;;;;;18.20;4.30;;;6.30;97.40;;;;;;928900;150;27324;-79
2022/09/30 04:08:43;;;;;;;11.80;3.97;;;6.40;97.80;;;;;;922728;152;27360;-79
2022/09/30 04:11:09;;;;;;;8.33;3.53;;;6.40;98.00;;;;;;911948;151;27434;-79
2022/09/30 04:13:36;;;;;;;11.47;4.20;;;6.50;98.30;;;;;;911310;153;27458;-78
2022/09/30 04:16:03;;;;;;;20.07;4.37;;;6.50;98.40;;;;;;911396;153;27414;-79
2022/09/30 04:18:30;;;;;;;8.77;4.03;;;6.60;98.60;;;;;;911709;151;27391;-79
2022/09/30 04:20:56;;;;;;;8.90;3.50;;;6.70;98.70;;;;;;912642;153;27474;-78
2022/09/30 04:23:22;;;;;;;16.03;4.17;;;6.70;98.70;;;;;;911913;153;27310;-79
2022/09/30 04:25:52;;;;;;;13.03;4.13;;;6.80;98.60;;;;;;912776;153;27893;-78
2022/09/30 04:28:18;;;;;;;7.30;3.07;;;6.90;98.70;;;;;;910415;152;27332;-79
2022/09/30 04:30:45;;;;;;;5.30;2.90;;;6.90;98.80;;;;;;911451;153;27330;-79
2022/09/30 04:33:11;;;;;;;11.53;2.97;;;6.90;98.80;;;;;;912290;152;27352;-78
2022/09/30 04:35:38;;;;;;;15.47;3.77;;;7.00;98.70;;;;;;911497;153;27352;-79
2022/09/30 04:38:06;;;;;;;4.53;2.97;;;7.00;98.60;;;;;;910872;156;27373;-78
2022/09/30 04:40:31;;;;;;;8.83;2.93;;;7.10;98.50;;;;;;911359;153;27451;-78
2022/09/30 04:42:58;;;;;;;4.37;2.97;;;7.10;98.30;;;;;;911763;153;27344;-78
2022/09/30 04:45:24;;;;;;;4.30;2.90;;;7.10;98.20;;;;;;913234;152;27356;-79
2022/09/30 04:47:51;;;;;;;7.00;2.97;;;7.10;98.20;;;;;;910928;152;27389;-79
2022/09/30 04:50:18;;;;;;;5.77;2.83;;;7.10;98.10;;;;;;911321;153;27467;-78
2022/09/30 04:52:44;;;;;;;10.47;2.80;;;7.20;98.20;;;;;;911805;151;27360;-79
2022/09/30 04:55:11;;;;;;;12.33;4.63;;;7.20;98.30;;;;;;910966;153;27422;-79
2022/09/30 04:57:37;;;;;;;9.53;3.43;;;7.20;98.20;;;;;;911882;153;27406;-79
2022/09/30 05:00:04;;;;;;;17.10;3.50;;;7.20;98.30;;;;;;911152;153;27380;-79
2022/09/30 05:02:30;;;;;;;30.73;5.70;;;7.30;98.30;;;;;;910674;153;27462;-79
2022/09/30 05:04:57;;;;;;;9.80;3.90;;;7.20;98.40;;;;;;910990;153;27473;-78
2022/09/30 05:07:24;;;;;;;15.67;4.03;;;7.30;98.50;;;;;;911042;152;27890;-79
2022/09/30 05:09:52;;;;;;;18.30;4.40;;;7.30;98.80;;;;;;911132;153;27328;-79
2022/09/30 05:12:17;;;;;;;12.60;3.57;;;7.30;98.50;;;;;;910945;153;27409;-79
2022/09/30 05:14:43;;;;;;;16.50;4.27;;;7.30;98.50;;;;;;911797;153;27297;-79
2022/09/30 05:17:10;;;;;;;12.73;3.77;;;7.30;98.60;;;;;;911547;152;27455;-79
2022/09/30 05:19:37;;;;;;;18.90;4.00;;;7.30;98.70;;;;;;911402;154;28337;-79
2022/09/30 05:22:03;;;;;;;16.70;4.17;;;7.40;98.80;;;;;;911364;153;27341;-79
2022/09/30 05:24:30;;;;;;;12.80;4.07;;;7.40;98.90;;;;;;910851;154;27516;-79
2022/09/30 05:26:56;;;;;;;24.43;5.40;;;7.40;99.10;;;;;;912515;153;27535;-79
2022/09/30 05:29:23;;;;;;;35.90;6.93;;;7.40;99.20;;;;;;911725;152;27353;-79
2022/09/30 05:31:49;;;;;;;25.27;5.23;;;7.50;99.30;;;;;;911536;156;27461;-79
2022/09/30 05:34:16;;;;;;;15.67;4.50;;;7.50;99.50;;;;;;911916;153;27779;-78
2022/09/30 05:36:43;;;;;;;32.00;6.17;;;7.50;99.50;;;;;;910896;156;27428;-79
2022/09/30 05:39:09;;;;;;;20.00;5.23;;;7.60;99.40;;;;;;911247;153;27408;-79
2022/09/30 05:41:36;;;;;;;102.60;10.47;;;7.60;99.40;;;;;;912575;151;27443;-78
2022/09/30 05:44:03;;;;;;;15.70;5.53;;;7.70;99.70;;;;;;911919;154;27357;-78
2022/09/30 05:46:29;;;;;;;67.80;8.57;;;7.70;99.60;;;;;;911872;152;27538;-79
2022/09/30 05:48:56;;;;;;;17.77;4.67;;;7.80;99.90;;;;;;911388;154;27360;-79
2022/09/30 05:51:22;;;;;;;13.00;4.50;;;7.80;99.90;;;;;;911986;151;27309;-78
2022/09/30 05:53:50;;;;;;;27.90;5.80;;;7.90;99.90;;;;;;911901;153;27487;-79
2022/09/30 05:56:15;;;;;;;18.87;5.13;;;8.00;99.90;;;;;;918647;152;27489;-78
2022/09/30 05:58:42;;;;;;;34.40;5.80;;;8.00;99.60;;;;;;927229;152;27284;-78
2022/09/30 06:01:09;;;;;;;19.30;5.40;;;8.10;99.50;;;;;;927256;151;27399;-78
2022/09/30 06:03:37;;;;;;;37.60;7.20;;;8.10;99.50;;;;;;927227;152;27364;-78
2022/09/30 06:06:02;;;;;;;19.70;6.17;;;8.10;99.30;;;;;;927050;152;27408;-79
2022/09/30 06:08:29;;;;;;;21.23;5.63;;;8.20;99.40;;;;;;927756;152;27395;-79
2022/09/30 06:10:57;;;;;;;22.33;6.87;;;8.20;99.50;;;;;;927380;151;27752;-78
2022/09/30 06:13:22;;;;;;;30.00;7.00;;;8.20;99.50;;;;;;927176;152;27450;-79
2022/09/30 06:15:55;;;;;;;21.03;6.30;;;8.30;99.50;;;;;;927496;151;27429;-79
2022/09/30 06:18:20;;;;;;;36.17;7.07;;;8.30;99.50;;;;;;926388;152;27892;-79
2022/09/30 06:20:47;;;;;;;37.47;7.17;;;8.30;99.50;;;;;;928180;152;27909;-79
2022/09/30 06:23:13;;;;;;;41.83;7.80;;;8.40;99.50;;;;;;927390;152;27723;-78
2022/09/30 06:25:42;;;;;;;35.97;6.73;;;8.50;99.60;;;;;;927518;152;27371;-79
2022/09/30 06:28:06;;;;;;;17.37;5.73;;;8.50;99.60;;;;;;925870;151;27417;-79
2022/09/30 06:30:33;;;;;;;26.00;6.50;;;8.60;99.70;;;;;;927460;152;27472;-79
2022/09/30 06:33:00;;;;;;;18.47;5.83;;;8.60;99.70;;;;;;927599;152;27472;-79
2022/09/30 06:35:27;;;;;;;27.80;5.57;;;8.60;99.90;;;;;;927631;151;27813;-79
2022/09/30 06:37:53;;;;;;;8.47;4.27;;;8.70;99.90;;;;;;927392;149;27394;-79
2022/09/30 06:40:22;;;;;;;51.73;7.13;;;8.80;99.90;;;;;;927085;152;27379;-78
2022/09/30 06:42:47;;;;;;;31.20;5.33;;;8.90;99.90;;;;;;927075;151;27533;-79
2022/09/30 06:45:13;;;;;;;43.67;6.83;;;8.90;99.90;;;;;;927095;151;27452;-78
2022/09/30 06:47:40;;;;;;;31.30;6.93;;;9.00;99.90;;;;;;927165;152;27561;-79
2022/09/30 06:50:06;;;;;;;48.60;7.90;;;9.10;99.70;;;;;;927411;152;27481;-79
2022/09/30 06:52:32;;;;;;;14.87;5.23;;;9.10;99.50;;;;;;927744;152;27426;-79
2022/09/30 06:54:59;;;;;;;43.60;7.33;;;9.20;99.70;;;;;;928173;151;27646;-79
2022/09/30 06:57:26;;;;;;;16.07;4.70;;;9.20;99.70;;;;;;927894;151;27380;-79
2022/09/30 06:59:53;;;;;;;44.37;7.30;;;9.30;99.80;;;;;;926939;152;27387;-79
2022/09/30 07:02:19;;;;;;;28.90;6.03;;;9.30;99.90;;;;;;927864;152;27409;-79
2022/09/30 07:04:46;;;;;;;16.07;4.43;;;9.50;99.90;;;;;;927310;151;27421;-79
2022/09/30 07:07:12;;;;;;;10.53;3.17;;;9.60;99.90;;;;;;927120;152;27375;-79
2022/09/30 07:09:38;;;;;;;6.00;3.33;;;9.80;99.90;;;;;;927429;151;27783;-79
2022/09/30 07:12:08;;;;;;;8.63;3.07;;;10.00;99.90;;;;;;927161;152;27379;-79
2022/09/30 07:14:35;;;;;;;6.30;3.37;;;10.20;99.90;;;;;;927189;152;27409;-79
2022/09/30 07:17:03;;;;;;;4.07;3.43;;;10.50;99.90;;;;;;927342;151;27433;-79
2022/09/30 07:19:28;;;;;;;3.63;3.33;;;10.70;99.90;;;;;;926622;152;27364;-79
2022/09/30 07:21:54;;;;;;;4.27;3.50;;;10.80;99.90;;;;;;927189;152;27402;-79
2022/09/30 07:24:21;;;;;;;5.53;3.77;;;11.00;99.90;;;;;;927048;152;27430;-78
2022/09/30 07:26:47;;;;;;;6.40;4.10;;;11.20;99.90;;;;;;927242;152;28524;-79
2022/09/30 07:29:14;;;;;;;4.57;3.83;;;11.30;99.90;;;;;;927396;152;27456;-79
2022/09/30 07:31:40;;;;;;;4.13;3.83;;;11.60;99.90;;;;;;927441;152;27422;-80
2022/09/30 07:34:07;;;;;;;9.63;4.30;;;11.90;99.90;;;;;;927773;152;27926;-79
2022/09/30 07:36:34;;;;;;;4.73;4.10;;;12.30;99.90;;;;;;927192;152;27387;-79
2022/09/30 07:39:06;;;;;;;4.30;3.90;;;12.70;99.90;;;;;;927351;152;27730;-79
2022/09/30 07:41:34;;;;;;;4.43;4.03;;;13.00;99.90;;;;;;927314;151;27379;-79
2022/09/30 07:43:59;;;;;;;5.03;4.10;;;13.40;99.90;;;;;;927152;152;27425;-79
2022/09/30 07:46:26;;;;;;;3.93;3.63;;;13.80;99.90;;;;;;926662;151;27335;-80
2022/09/30 07:48:53;;;;;;;4.37;3.98;;;14.20;99.30;;;;;;926670;152;27414;-80
2022/09/30 07:51:22;;;;;;;4.47;3.90;;;14.80;99.90;;;;;;925097;152;27382;-80
2022/09/30 07:53:51;;;;;;;4.58;3.58;;;15.30;99.90;;;;;;922547;152;27364;-80
2022/09/30 07:56:17;;;;;;;4.10;3.33;;;16.10;99.90;;;;;;927335;152;27374;-80
2022/09/30 07:58:44;;;;;;;3.52;3.22;;;16.90;99.90;;;;;;926865;152;27405;-80
2022/09/30 08:01:10;;;;;;;3.33;2.92;;;17.80;98.60;;;;;;927728;151;27881;-80
2022/09/30 08:03:40;;;;;;;3.10;2.80;;;18.70;95.90;;;;;;927941;152;27445;-80
2022/09/30 08:06:04;;;;;;;2.80;2.60;;;19.60;94.90;;;;;;926578;152;27365;-80
2022/09/30 08:08:30;;;;;;;3.12;2.85;;;20.50;92.00;;;;;;926328;152;27452;-80
2022/09/30 08:11:00;;;;;;;3.45;3.15;;;21.40;89.30;;;;;;927798;152;27372;-80
2022/09/30 08:13:26;;;;;;;2.75;2.55;;;22.20;85.30;;;;;;927315;152;27810;-81
2022/09/30 08:15:53;;;;;;;2.85;2.65;;;22.90;82.50;;;;;;927166;152;27309;-81
2022/09/30 08:18:20;;;;;;;3.40;2.90;;;23.70;80.00;;;;;;927610;152;27421;-81
2022/09/30 08:20:46;;;;;;;3.58;3.08;;;24.40;77.00;;;;;;927642;152;27275;-81
2022/09/30 08:23:13;;;;;;;2.87;2.55;;;25.10;74.20;;;;;;926421;152;27469;-81
2022/09/30 08:25:39;;;;;;;3.12;2.72;;;25.70;71.90;;;;;;927342;152;27388;-81
2022/09/30 08:28:06;;;;;;;2.70;2.50;;;26.30;69.80;;;;;;914367;154;27430;-81
2022/09/30 08:30:35;;;;;;;2.98;2.70;;;26.90;68.20;;;;;;926530;151;27691;-81
2022/09/30 08:33:02;;;;;;;3.00;2.77;;;27.40;66.10;;;;;;943719;148;27290;-81
2022/09/30 08:35:28;;;;;;;2.83;2.62;;;27.90;64.40;;;;;;943526;148;27464;-81
2022/09/30 08:37:55;;;;;;;4.47;2.17;;;28.30;62.90;;;;;;943731;148;27683;-81
2022/09/30 08:40:24;;;;;;;2.12;2.02;;;28.70;61.60;;;;;;943204;148;27786;-81
2022/09/30 08:42:51;;;;;;;2.52;2.27;;;29.10;60.20;;;;;;943996;148;27437;-81
2022/09/30 08:45:26;;;;;;;2.62;2.42;;;29.50;59.30;;;;;;943532;148;27279;-82
2022/09/30 08:48:12;;;;;;;3.60;2.55;;;29.70;58.40;;;;;;943260;148;27479;-81
2022/09/30 08:50:46;;;;;;;2.42;2.12;;;30.00;57.80;;;;;;943758;148;27278;-82
2022/09/30 08:53:13;;;;;;;3.42;2.00;;;30.30;57.10;;;;;;943795;148;27369;-82
2022/09/30 08:55:42;;;;;;;2.85;2.27;;;30.60;56.40;;;;;;943157;148;27323;-81
2022/09/30 08:58:21;;;;;;;2.30;2.10;;;30.80;55.60;;;;;;940968;148;27393;-81
2022/09/30 09:00:47;;;;;;;2.58;2.08;;;31.00;55.20;;;;;;937080;152;27344;-81
2022/09/30 09:03:14;;;;;;;2.20;2.00;;;31.20;54.90;;;;;;937622;148;27407;-82
2022/09/30 09:05:53;;;;;;;2.10;2.00;;;31.30;54.10;;;;;;937827;148;27328;-82
2022/09/30 09:08:40;;;;;;;2.27;2.08;;;31.50;53.90;;;;;;936662;151;27318;-82
2022/09/30 09:11:07;;;;;;;1.90;1.80;;;31.70;53.30;;;;;;936964;148;27367;-82
2022/09/30 09:13:48;;;;;;;2.00;1.90;;;31.70;52.70;;;;;;935430;150;27354;-82
2022/09/30 09:16:21;;;;;;;2.20;2.00;;;31.80;51.90;;;;;;936938;152;27308;-82
2022/09/30 09:19:06;;;;;;;2.10;1.87;;;31.70;51.30;;;;;;936226;148;27365;-82
2022/09/30 09:21:38;;;;;;;2.67;2.10;;;31.60;51.20;;;;;;937063;149;27838;-82
2022/09/30 09:24:04;;;;;;;1.95;1.85;;;31.50;51.20;;;;;;937388;148;27355;-82
2022/09/30 09:26:31;;;;;;;2.15;1.95;;;31.40;50.70;;;;;;936982;148;27443;-82
2022/09/30 09:29:19;;;;;;;2.02;1.85;;;31.30;50.40;;;;;;936878;148;27248;-82
2022/09/30 09:31:47;;;;;;;2.10;1.90;;;31.20;50.00;;;;;;938009;148;27296;-81
2022/09/30 09:34:12;;;;;;;2.33;2.12;;;31.00;50.00;;;;;;937429;148;26212;-82
2022/09/30 09:36:48;;;;;;;2.05;1.85;;;30.80;49.50;;;;;;937737;148;27854;-82
2022/09/30 09:39:42;;;;;;;2.30;2.10;;;30.60;49.30;;;;;;937127;148;27330;-81
2022/09/30 09:42:11;;;;;;;2.08;1.95;;;30.20;49.10;;;;;;937979;151;27532;-82
2022/09/30 09:44:43;;;;;;;2.72;2.00;;;29.90;49.50;;;;;;937637;153;27287;-82
2022/09/30 09:47:14;;;;;;;2.17;1.90;;;29.50;49.00;;;;;;937052;148;27365;-82
2022/09/30 09:49:37;;;;;;;2.12;1.95;;;29.10;48.90;;;;;;935569;148;27342;-81
2022/09/30 09:52:12;;;;;;;2.12;1.92;;;28.80;48.90;;;;;;937363;148;27424;-81
2022/09/30 09:54:49;;;;;;;4.42;2.58;;;28.40;49.00;;;;;;937823;148;27295;-81
2022/09/30 09:57:17;;;;;;;1.95;1.72;;;28.00;49.60;;;;;;937510;148;27243;-82
2022/09/30 09:59:59;;;;;;;2.35;2.00;;;27.60;48.90;;;;;;942468;148;27392;-82
2022/09/30 10:02:28;;;;;;;2.25;2.02;;;27.10;49.00;;;;;;942894;148;27484;-82
2022/09/30 10:05:10;;;;;;;2.67;2.00;;;26.70;49.00;;;;;;943986;148;27948;-82
2022/09/30 10:07:21;;;;;;;2.20;2.10;;;26.30;49.30;;;;;;943325;148;27327;-82
2022/09/30 10:09:48;;;;;;;2.00;1.87;;;25.90;49.40;;;;;;944026;148;27295;-81
2022/09/30 10:12:14;;;;;;;2.40;2.20;;;25.60;49.70;;;;;;943671;148;27270;-82
2022/09/30 10:14:47;;;;;;;2.50;2.30;;;25.30;50.00;;;;;;945189;148;27434;-82
2022/09/30 10:17:19;;;;;;;2.17;2.08;;;25.10;50.20;;;;;;944077;148;27353;-82
2022/09/30 10:19:52;;;;;;;2.27;2.02;;;24.80;50.40;;;;;;943923;148;27415;-81
2022/09/30 10:22:27;;;;;;;2.20;2.10;;;24.60;50.50;;;;;;942858;148;27376;-81
2022/09/30 10:24:54;;;;;;;2.20;2.00;;;24.30;50.60;;;;;;944105;148;27445;-81
2022/09/30 10:27:29;;;;;;;2.12;1.98;;;24.10;51.00;;;;;;940836;148;27443;-81
2022/09/30 10:29:56;;;;;;;2.10;2.00;;;23.90;51.10;;;;;;943232;148;27313;-80
2022/09/30 10:32:22;;;;;;;2.70;2.33;;;23.70;51.20;;;;;;944362;147;27306;-81
2022/09/30 10:34:49;;;;;;;5.08;2.10;;;23.50;51.40;;;;;;937027;148;27322;-81
2022/09/30 10:37:22;;;;;;;3.12;2.02;;;23.30;51.50;;;;;;941857;148;27343;-81
2022/09/30 10:39:54;;;;;;;1.87;1.70;;;23.10;51.50;;;;;;943226;148;27853;-81
2022/09/30 10:42:21;;;;;;;1.80;1.70;;;22.90;51.80;;;;;;943846;148;27829;-81
2022/09/30 10:44:53;;;;;;;2.00;1.77;;;22.60;52.20;;;;;;943025;148;27371;-81
2022/09/30 10:47:20;;;;;;;2.55;2.15;;;22.50;52.50;;;;;;944795;148;27325;-81
2022/09/30 10:49:49;;;;;;;1.92;1.70;;;22.30;52.90;;;;;;944321;148;27332;-81
2022/09/30 10:52:27;;;;;;;2.85;1.77;;;22.20;53.30;;;;;;944190;148;27397;-81
2022/09/30 10:54:54;;;;;;;1.75;1.60;;;22.10;53.40;;;;;;945306;147;27449;-81
2022/09/30 10:57:21;;;;;;;1.75;1.50;;;21.90;53.60;;;;;;944098;148;27403;-81
2022/09/30 10:59:47;;;;;;;10.20;1.98;;;21.80;53.70;;;;;;943962;148;27353;-81
2022/09/30 11:02:41;;;;;;;2.27;1.72;;;21.70;53.70;;;;;;943748;148;27742;-81
2022/09/30 11:05:10;;;;;;;1.55;1.45;;;21.60;53.50;;;;;;944169;148;27332;-80
2022/09/30 11:07:36;;;;;;;1.32;1.05;;;21.50;53.40;;;;;;943455;148;27378;-81
2022/09/30 11:10:06;;;;;;;1.67;1.50;;;21.50;53.30;;;;;;942470;148;27387;-81
2022/09/30 11:12:38;;;;;;;1.45;1.35;;;21.40;53.30;;;;;;943675;148;27444;-81
2022/09/30 11:15:23;;;;;;;4.62;1.80;;;21.30;53.20;;;;;;943726;148;27868;-81
2022/09/30 11:17:58;;;;;;;1.57;1.47;;;21.20;53.40;;;;;;944684;148;27338;-81
2022/09/30 11:20:28;;;;;;;1.52;1.40;;;21.10;53.30;;;;;;945213;148;27314;-81
2022/09/30 11:23:15;;;;;;;1.52;1.42;;;21.10;53.60;;;;;;944362;148;27337;-81
2022/09/30 11:25:50;;;;;;;1.57;1.47;;;21.00;53.80;;;;;;930993;152;27449;-81
2022/09/30 11:28:38;;;;;;;1.72;1.27;;;21.00;53.90;;;;;;944173;148;27290;-81
2022/09/30 11:31:23;;;;;;;2.85;1.25;;;21.00;54.00;;;;;;944198;147;27284;-81
2022/09/30 11:33:55;;;;;;;1.15;1.05;;;21.00;53.90;;;;;;940839;148;27391;-82
2022/09/30 11:36:37;;;;;;;1.32;1.20;;;21.00;53.90;;;;;;944274;148;27357;-81
2022/09/30 11:39:21;;;;;;;1.62;1.20;;;20.90;53.60;;;;;;943078;148;27330;-80
2022/09/30 11:41:48;;;;;;;1.45;1.35;;;20.90;53.40;;;;;;944280;148;27391;-81
2022/09/30 11:44:36;;;;;;;1.10;1.10;;;20.90;53.60;;;;;;939791;148;27379;-81
2022/09/30 11:47:08;;;;;;;2.47;1.12;;;20.80;53.60;;;;;;943900;148;27314;-81
2022/09/30 11:49:40;;;;;;;0.90;0.90;;;20.80;53.60;;;;;;944106;148;27384;-81
2022/09/30 11:52:22;;;;;;;1.30;1.20;;;20.70;53.60;;;;;;943521;148;27344;-81
2022/09/30 11:54:51;;;;;;;0.90;0.90;;;20.70;53.50;;;;;;943326;151;27305;-81
2022/09/30 11:57:27;;;;;;;1.20;1.00;;;20.70;53.30;;;;;;944367;148;27383;-81
2022/09/30 12:00:07;;;;;;;2.58;1.35;;;20.70;53.20;;;;;;947355;147;27408;-81
2022/09/30 12:02:50;;;;;;;1.67;1.12;;;20.70;52.80;;;;;;945833;147;27353;-81
2022/09/30 12:05:17;;;;;;;2.20;1.00;;;20.70;52.80;;;;;;944436;148;27900;-81
2022/09/30 12:07:44;;;;;;;1.67;1.10;;;20.60;52.80;;;;;;938964;148;27296;-80
2022/09/30 12:10:25;;;;;;;1.50;0.93;;;20.60;52.80;;;;;;942697;148;27862;-81
2022/09/30 12:12:54;;;;;;;1.35;1.10;;;20.60;53.00;;;;;;928030;148;27242;-80
2022/09/30 12:15:22;;;;;;;1.65;1.32;;;20.50;53.10;;;;;;944207;148;27438;-81
2022/09/30 12:17:50;;;;;;;1.17;1.00;;;20.50;53.30;;;;;;943833;148;27349;-81
2022/09/30 12:20:26;;;;;;;1.70;1.32;;;20.60;53.70;;;;;;943059;148;27554;-80
2022/09/30 12:23:05;;;;;;;1.20;1.02;;;20.50;53.80;;;;;;939828;148;27402;-81
2022/09/30 12:25:32;;;;;;;1.20;1.10;;;20.50;53.70;;;;;;944418;147;27289;-81
2022/09/30 12:27:58;;;;;;;1.22;1.10;;;20.50;53.60;;;;;;943622;148;27734;-81
2022/09/30 12:30:24;;;;;;;0.90;0.90;;;20.50;53.50;;;;;;944756;148;27329;-80
2022/09/30 12:33:03;;;;;;;1.20;1.10;;;20.50;53.20;;;;;;943513;148;27282;-81
2022/09/30 12:35:42;;;;;;;1.25;0.98;;;20.50;53.40;;;;;;944559;148;27447;-81
2022/09/30 12:38:17;;;;;;;1.12;1.02;;;20.50;53.60;;;;;;943824;148;27334;-81
2022/09/30 12:41:01;;;;;;;1.82;1.02;;;20.50;53.60;;;;;;944108;148;27372;-80
2022/09/30 12:43:34;;;;;;;1.62;1.20;;;20.50;53.50;;;;;;943983;148;28337;-80
2022/09/30 12:46:15;;;;;;;1.52;1.27;;;20.60;53.50;;;;;;940917;148;27359;-81
2022/09/30 12:48:42;;;;;;;1.12;1.07;;;20.60;53.50;;;;;;943655;148;27348;-81
2022/09/30 12:51:09;;;;;;;1.77;0.98;;;20.60;53.30;;;;;;942836;148;27455;-80
2022/09/30 12:53:35;;;;;;;2.52;0.98;;;20.60;52.50;;;;;;943393;148;27865;-80
2022/09/30 12:56:04;;;;;;;1.47;1.10;;;20.60;53.20;;;;;;943918;148;27291;-80
2022/09/30 12:58:31;;;;;;;1.30;1.20;;;20.70;53.60;;;;;;943185;148;27406;-81
2022/09/30 13:01:19;;;;;;;1.65;1.02;;;20.70;53.30;;;;;;941197;148;27326;-81
2022/09/30 13:03:51;;;;;;;1.85;1.00;;;20.70;53.10;;;;;;942429;152;27303;-81
2022/09/30 13:06:21;;;;;;;1.65;1.10;;;20.70;53.10;;;;;;941349;150;27729;-81